createdAt,value
2017-11-12T00:00:53.194Z,5.40
2017-11-12T00:03:21.356Z,5.50
2017-11-12T00:05:50.263Z,5.50
2017-11-12T00:08:18.424Z,5.50
2017-11-12T00:10:47.364Z,5.60
2017-11-12T00:13:15.637Z,5.60
2017-11-12T00:15:43.784Z,5.70
2017-11-12T00:18:11.973Z,5.60
2017-11-12T00:20:40.524Z,5.70
2017-11-12T00:23:08.734Z,5.60
2017-11-12T00:25:37.296Z,5.60
2017-11-12T00:28:05.436Z,5.50
2017-11-12T00:30:34.360Z,5.40
2017-11-12T00:33:02.561Z,5.40
2017-11-12T00:35:30.711Z,5.40
2017-11-12T00:37:58.905Z,5.50
2017-11-12T00:40:27.080Z,5.40
2017-11-12T00:42:55.256Z,5.40
2017-11-12T00:45:23.405Z,5.50
2017-11-12T00:47:51.569Z,5.60
2017-11-12T00:50:19.716Z,5.60
2017-11-12T00:52:48.622Z,5.50
2017-11-12T00:55:16.826Z,5.50
2017-11-12T00:57:45.264Z,5.50
2017-11-12T01:00:14.191Z,5.50
2017-11-12T01:02:42.318Z,5.50
2017-11-12T01:05:12.511Z,5.40
2017-11-12T01:07:41.432Z,5.40
2017-11-12T01:10:10.345Z,5.50
2017-11-12T01:12:38.781Z,5.50
2017-11-12T01:15:07.310Z,5.50
2017-11-12T01:17:35.468Z,5.50
2017-11-12T01:20:03.623Z,5.50
2017-11-12T01:22:32.589Z,5.40
2017-11-12T01:25:00.724Z,5.40
2017-11-12T01:27:28.881Z,5.50
2017-11-12T01:29:57.086Z,5.50
2017-11-12T01:32:25.243Z,5.50
2017-11-12T01:34:53.485Z,5.50
2017-11-12T01:37:22.415Z,5.40
2017-11-12T01:39:50.568Z,5.40
2017-11-12T01:42:18.696Z,5.30
2017-11-12T01:44:46.848Z,5.30
2017-11-12T01:47:15.696Z,5.40
2017-11-12T01:49:43.905Z,5.40
2017-11-12T01:52:12.035Z,5.40
2017-11-12T01:54:40.193Z,5.40
2017-11-12T01:57:09.099Z,5.30
2017-11-12T01:59:38.073Z,5.30
2017-11-12T02:02:07.045Z,5.30
2017-11-12T02:04:35.200Z,5.30
2017-11-12T02:07:03.362Z,5.30
2017-11-12T02:09:31.538Z,5.20
2017-11-12T02:11:59.659Z,5.30
2017-11-12T02:14:28.575Z,5.30
2017-11-12T02:16:56.720Z,5.20
2017-11-12T02:19:25.761Z,5.10
2017-11-12T02:21:53.942Z,5.00
2017-11-12T02:24:22.086Z,5.10
2017-11-12T02:26:50.237Z,5.10
2017-11-12T02:29:19.193Z,5.00
2017-11-12T02:31:47.334Z,5.00
2017-11-12T02:34:15.465Z,5.00
2017-11-12T02:36:44.395Z,4.90
2017-11-12T02:39:12.531Z,4.90
2017-11-12T02:41:41.450Z,4.70
2017-11-12T02:44:09.580Z,4.70
2017-11-12T02:46:37.723Z,4.70
2017-11-12T02:49:05.852Z,4.70
2017-11-12T02:51:34.057Z,4.60
2017-11-12T02:54:02.426Z,4.50
2017-11-12T02:56:30.590Z,4.50
2017-11-12T02:58:58.725Z,4.50
2017-11-12T03:01:27.661Z,4.50
2017-11-12T03:03:56.623Z,4.50
2017-11-12T03:06:25.648Z,4.50
2017-11-12T03:08:54.043Z,4.40
2017-11-12T03:11:22.200Z,4.40
2017-11-12T03:13:50.605Z,4.40
2017-11-12T03:16:18.805Z,4.40
2017-11-12T03:18:47.713Z,4.20
2017-11-12T03:21:15.901Z,4.20
2017-11-12T03:23:44.106Z,4.10
2017-11-12T03:26:12.271Z,4.10
2017-11-12T03:28:40.431Z,4.10
2017-11-12T03:31:08.593Z,4.00
2017-11-12T03:33:37.015Z,4.00
2017-11-12T03:36:05.173Z,3.80
2017-11-12T03:38:33.430Z,3.80
2017-11-12T03:41:01.602Z,3.70
2017-11-12T03:43:29.773Z,3.80
2017-11-12T03:45:57.912Z,3.80
2017-11-12T03:48:26.833Z,3.70
2017-11-12T03:50:54.973Z,3.70
2017-11-12T03:53:24.087Z,3.80
2017-11-12T03:55:52.232Z,3.80
2017-11-12T03:58:21.157Z,3.80
2017-11-12T04:00:49.287Z,3.80
2017-11-12T04:03:17.430Z,3.90
2017-11-12T04:05:45.605Z,4.00
2017-11-12T04:08:14.168Z,4.00
2017-11-12T04:10:42.336Z,4.00
2017-11-12T04:13:10.495Z,4.10
2017-11-12T04:15:38.681Z,4.00
2017-11-12T04:18:06.806Z,4.00
2017-11-12T04:20:35.732Z,4.00
2017-11-12T04:23:03.924Z,4.00
2017-11-12T04:25:32.105Z,3.90
2017-11-12T04:28:00.245Z,3.90
2017-11-12T04:30:28.438Z,3.90
2017-11-12T04:32:56.585Z,3.80
2017-11-12T04:35:24.740Z,3.90
2017-11-12T04:37:53.809Z,4.10
2017-11-12T04:40:22.047Z,4.00
2017-11-12T04:42:50.202Z,4.10
2017-11-12T04:45:18.341Z,4.10
2017-11-12T04:47:47.286Z,4.10
2017-11-12T04:50:15.881Z,4.10
2017-11-12T04:52:44.043Z,4.10
2017-11-12T04:55:12.176Z,4.10
2017-11-12T04:57:41.111Z,4.10
2017-11-12T05:00:09.249Z,4.10
2017-11-12T05:02:37.698Z,4.20
2017-11-12T05:05:05.831Z,4.10
2017-11-12T05:07:33.978Z,4.20
2017-11-12T05:10:02.110Z,4.30
2017-11-12T05:12:30.278Z,4.30
2017-11-12T05:14:58.433Z,4.30
2017-11-12T05:17:26.708Z,4.30
2017-11-12T05:19:54.874Z,4.20
2017-11-12T05:22:23.018Z,4.30
2017-11-12T05:24:51.165Z,4.30
2017-11-12T05:27:20.073Z,4.40
2017-11-12T05:29:48.218Z,4.30
2017-11-12T05:32:17.182Z,4.30
2017-11-12T05:34:45.351Z,4.30
2017-11-12T05:37:13.716Z,4.30
2017-11-12T05:39:41.872Z,4.30
2017-11-12T05:42:10.015Z,4.40
2017-11-12T05:44:38.928Z,4.40
2017-11-12T05:47:07.132Z,4.40
2017-11-12T05:49:35.288Z,4.40
2017-11-12T05:52:03.530Z,4.30
2017-11-12T05:54:32.458Z,4.40
2017-11-12T05:57:01.124Z,4.40
2017-11-12T05:59:29.300Z,4.40
2017-11-12T06:01:57.474Z,4.40
2017-11-12T06:04:25.675Z,4.40
2017-11-12T06:06:53.836Z,4.30
2017-11-12T06:09:21.985Z,4.30
2017-11-12T06:11:50.146Z,4.20
2017-11-12T06:14:19.042Z,4.10
2017-11-12T06:16:47.198Z,4.10
2017-11-12T06:19:16.102Z,3.90
2017-11-12T06:21:44.349Z,3.90
2017-11-12T06:24:12.490Z,3.70
2017-11-12T06:26:40.648Z,3.50
2017-11-12T06:29:08.784Z,3.50
2017-11-12T06:31:37.721Z,3.30
2017-11-12T06:34:05.851Z,3.30
2017-11-12T06:36:34.784Z,3.30
2017-11-12T06:39:02.950Z,3.30
2017-11-12T06:41:31.129Z,3.30
2017-11-12T06:43:59.270Z,3.20
2017-11-12T06:46:27.482Z,3.30
2017-11-12T06:48:55.754Z,3.30
2017-11-12T06:51:24.214Z,3.40
2017-11-12T06:53:52.374Z,3.30
2017-11-12T06:56:20.572Z,3.30
2017-11-12T06:58:48.730Z,3.30
2017-11-12T07:01:16.862Z,3.40
2017-11-12T07:03:45.007Z,3.40
2017-11-12T07:06:13.149Z,3.30
2017-11-12T07:08:42.103Z,3.30
2017-11-12T07:11:11.013Z,3.40
2017-11-12T07:13:39.168Z,3.40
2017-11-12T07:16:08.063Z,3.50
2017-11-12T07:18:36.997Z,3.50
2017-11-12T07:21:05.128Z,3.40
2017-11-12T07:23:34.059Z,3.60
2017-11-12T07:26:02.188Z,3.60
2017-11-12T07:28:31.115Z,3.60
2017-11-12T07:30:59.292Z,3.60
2017-11-12T07:33:27.435Z,3.80
2017-11-12T07:35:55.644Z,3.90
2017-11-12T07:38:23.788Z,4.00
2017-11-12T07:40:51.995Z,4.00
2017-11-12T07:43:20.137Z,4.20
2017-11-12T07:45:48.332Z,4.20
2017-11-12T07:48:16.485Z,4.20
2017-11-12T07:50:44.688Z,4.20
2017-11-12T07:53:12.883Z,4.20
2017-11-12T07:55:41.036Z,4.30
2017-11-12T07:58:09.167Z,4.30
2017-11-12T08:00:37.339Z,4.40
2017-11-12T08:03:05.481Z,4.50
2017-11-12T08:05:33.623Z,4.60
2017-11-12T08:08:01.778Z,4.80
2017-11-12T08:10:29.902Z,4.80
2017-11-12T08:12:58.068Z,4.70
2017-11-12T08:15:26.207Z,4.70
2017-11-12T08:17:54.351Z,4.80
2017-11-12T08:20:22.548Z,4.90
2017-11-12T08:22:51.623Z,4.90
2017-11-12T08:25:19.821Z,4.90
2017-11-12T08:27:47.990Z,4.90
2017-11-12T08:30:16.132Z,4.90
2017-11-12T08:32:44.275Z,4.90
2017-11-12T08:35:12.501Z,5.00
2017-11-12T08:37:40.677Z,5.00
2017-11-12T08:40:08.812Z,5.10
2017-11-12T08:42:38.639Z,5.20
2017-11-12T08:45:06.792Z,5.20
2017-11-12T08:47:35.776Z,5.40
2017-11-12T08:50:03.937Z,5.40
2017-11-12T08:52:32.087Z,5.50
2017-11-12T08:55:00.262Z,5.50
2017-11-12T08:57:28.386Z,5.70
2017-11-12T08:59:56.588Z,5.90
2017-11-12T09:02:24.748Z,5.80
2017-11-12T09:04:52.902Z,5.90
2017-11-12T09:07:21.600Z,6.10
2017-11-12T09:09:49.793Z,6.20
2017-11-12T09:12:18.189Z,6.40
2017-11-12T09:14:46.385Z,6.60
2017-11-12T09:17:14.625Z,6.80
2017-11-12T09:19:43.400Z,6.70
2017-11-12T09:22:13.185Z,6.80
2017-11-12T09:24:41.335Z,6.80
2017-11-12T09:27:10.276Z,6.80
2017-11-12T09:29:38.410Z,6.70
2017-11-12T09:32:07.345Z,7.10
2017-11-12T09:34:35.558Z,7.10
2017-11-12T09:37:04.508Z,7.20
2017-11-12T09:39:32.648Z,7.20
2017-11-12T09:42:00.813Z,6.80
2017-11-12T09:44:28.965Z,7.00
2017-11-12T09:46:57.116Z,6.80
2017-11-12T09:49:25.274Z,6.80
2017-11-12T09:51:53.536Z,6.90
2017-11-12T09:54:21.675Z,7.00
2017-11-12T09:56:50.627Z,7.20
2017-11-12T09:59:18.964Z,7.20
2017-11-12T10:01:47.153Z,7.30
2017-11-12T10:04:15.324Z,7.40
2017-11-12T10:06:43.485Z,7.40
2017-11-12T10:09:11.680Z,7.30
2017-11-12T10:11:40.090Z,7.50
2017-11-12T10:14:09.078Z,7.70
2017-11-12T10:16:37.215Z,7.70
2017-11-12T10:19:05.401Z,7.50
2017-11-12T10:21:33.741Z,7.60
2017-11-12T10:24:01.900Z,7.50
2017-11-12T10:26:30.852Z,7.50
2017-11-12T10:28:59.030Z,7.60
2017-11-12T10:31:27.171Z,7.90
2017-11-12T10:33:55.328Z,7.50
2017-11-12T10:36:23.468Z,7.70
2017-11-12T10:38:52.396Z,8.10
2017-11-12T10:41:20.554Z,8.00
2017-11-12T10:43:48.699Z,8.30
2017-11-12T10:46:17.627Z,8.50
2017-11-12T10:48:45.775Z,8.50
2017-11-12T10:51:14.814Z,8.50
2017-11-12T10:53:42.963Z,8.50
2017-11-12T10:56:11.127Z,8.50
2017-11-12T10:58:39.288Z,8.50
2017-11-12T11:01:08.228Z,8.30
2017-11-12T11:03:36.370Z,8.30
2017-11-12T11:06:04.558Z,8.20
2017-11-12T11:08:32.703Z,8.20
2017-11-12T11:11:00.866Z,8.10
2017-11-12T11:13:29.780Z,8.60
2017-11-12T11:15:57.955Z,8.60
2017-11-12T11:18:26.103Z,8.80
2017-11-12T11:20:55.035Z,9.20
2017-11-12T11:23:24.260Z,9.20
2017-11-12T11:25:52.515Z,9.10
2017-11-12T11:28:20.645Z,9.20
2017-11-12T11:30:48.802Z,9.20
2017-11-12T11:33:17.744Z,8.70
2017-11-12T11:35:45.904Z,8.60
2017-11-12T11:38:14.089Z,8.60
2017-11-12T11:40:42.674Z,8.60
2017-11-12T11:43:10.943Z,8.40
2017-11-12T11:45:39.088Z,8.60
2017-11-12T11:48:07.268Z,9.00
2017-11-12T11:50:35.395Z,9.00
2017-11-12T11:53:03.561Z,9.00
2017-11-12T11:55:31.698Z,9.00
2017-11-12T11:57:59.868Z,9.00
2017-11-12T12:00:28.019Z,9.10
2017-11-12T12:02:56.539Z,9.10
2017-11-12T12:05:25.511Z,9.00
2017-11-12T12:07:53.678Z,9.30
2017-11-12T12:10:21.843Z,9.40
2017-11-12T12:12:50.059Z,9.50
2017-11-12T12:15:18.216Z,9.60
2017-11-12T12:17:46.380Z,9.60
2017-11-12T12:20:14.549Z,9.50
2017-11-12T12:22:42.696Z,9.20
2017-11-12T12:25:10.866Z,9.30
2017-11-12T12:27:39.084Z,9.20
2017-11-12T12:30:07.241Z,9.30
2017-11-12T12:32:35.387Z,9.10
2017-11-12T12:35:03.560Z,9.10
2017-11-12T12:37:31.723Z,8.90
2017-11-12T12:40:00.683Z,8.90
2017-11-12T12:42:28.818Z,8.90
2017-11-12T12:44:56.964Z,8.80
2017-11-12T12:47:25.868Z,9.30
2017-11-12T12:49:54.073Z,9.30
2017-11-12T12:52:22.240Z,9.50
2017-11-12T12:54:50.425Z,9.50
2017-11-12T12:57:18.595Z,9.80
2017-11-12T12:59:46.739Z,9.50
2017-11-12T13:02:14.944Z,9.50
2017-11-12T13:04:43.113Z,9.50
2017-11-12T13:07:11.264Z,9.40
2017-11-12T13:09:39.430Z,9.10
2017-11-12T13:12:07.595Z,8.90
2017-11-12T13:14:35.739Z,9.00
2017-11-12T13:17:03.884Z,8.70
2017-11-12T13:19:32.060Z,8.70
2017-11-12T13:22:00.220Z,8.40
2017-11-12T13:24:28.375Z,8.30
2017-11-12T13:26:56.541Z,8.20
2017-11-12T13:29:24.979Z,8.40
2017-11-12T13:31:53.755Z,8.30
2017-11-12T13:34:21.895Z,8.20
2017-11-12T13:36:50.090Z,8.20
2017-11-12T13:39:18.242Z,8.20
2017-11-12T13:41:46.440Z,8.60
2017-11-12T13:44:15.042Z,9.00
2017-11-12T13:46:43.203Z,9.40
2017-11-12T13:49:11.390Z,9.40
2017-11-12T13:51:40.295Z,9.40
2017-11-12T13:54:09.236Z,9.10
2017-11-12T13:56:37.403Z,9.10
2017-11-12T13:59:05.578Z,9.00
2017-11-12T14:01:33.754Z,8.70
2017-11-12T14:04:02.018Z,8.60
2017-11-12T14:06:30.156Z,8.50
2017-11-12T14:09:02.294Z,8.20
2017-11-12T14:11:30.465Z,8.20
2017-11-12T14:13:58.647Z,8.10
2017-11-12T14:16:27.560Z,8.00
2017-11-12T14:18:55.725Z,8.00
2017-11-12T14:21:24.640Z,7.70
2017-11-12T14:23:52.808Z,7.70
2017-11-12T14:26:21.833Z,7.70
2017-11-12T14:28:50.009Z,7.70
2017-11-12T14:31:18.177Z,7.60
2017-11-12T14:33:46.929Z,7.70
2017-11-12T14:36:15.805Z,7.70
2017-11-12T14:38:44.735Z,7.70
2017-11-12T14:41:13.460Z,7.60
2017-11-12T14:43:41.612Z,7.60
2017-11-12T14:46:09.791Z,7.70
2017-11-12T14:48:37.943Z,7.70
2017-11-12T14:51:06.099Z,7.60
2017-11-12T14:53:34.253Z,7.60
2017-11-12T14:56:02.443Z,7.50
2017-11-12T14:58:30.595Z,7.50
2017-11-12T15:00:59.533Z,7.40
2017-11-12T15:03:27.681Z,7.40
2017-11-12T15:05:55.859Z,7.30
2017-11-12T15:08:23.991Z,7.20
2017-11-12T15:10:52.945Z,6.90
2017-11-12T15:13:21.087Z,6.90
2017-11-12T15:15:49.238Z,7.00
2017-11-12T15:18:17.402Z,6.90
2017-11-12T15:20:47.287Z,6.90
2017-11-12T15:23:15.444Z,6.90
2017-11-12T15:25:43.605Z,6.90
2017-11-12T15:28:11.755Z,6.80
2017-11-12T15:30:39.906Z,6.90
2017-11-12T15:33:09.449Z,6.80
2017-11-12T15:35:37.595Z,6.80
2017-11-12T15:38:05.743Z,6.80
2017-11-12T15:40:33.897Z,7.00
2017-11-12T15:43:02.068Z,7.00
2017-11-12T15:45:30.232Z,7.00
2017-11-12T15:47:58.505Z,7.00
2017-11-12T15:50:26.677Z,7.20
2017-11-12T15:52:54.857Z,7.20
2017-11-12T15:55:23.470Z,7.30
2017-11-12T15:57:52.380Z,7.50
2017-11-12T16:00:20.540Z,7.40
2017-11-12T16:02:49.457Z,7.60
2017-11-12T16:05:17.775Z,7.60
2017-11-12T16:07:45.906Z,7.60
2017-11-12T16:10:14.180Z,7.70
2017-11-12T16:12:42.327Z,7.70
2017-11-12T16:15:10.501Z,7.80
2017-11-12T16:17:39.410Z,7.80
2017-11-12T16:20:07.571Z,7.80
2017-11-12T16:22:36.528Z,7.90
2017-11-12T16:25:04.701Z,7.80
2017-11-12T16:27:32.853Z,7.80
2017-11-12T16:30:01.022Z,7.80
2017-11-12T16:32:29.159Z,7.90
2017-11-12T16:34:57.314Z,8.00
2017-11-12T16:37:26.243Z,8.00
2017-11-12T16:39:54.410Z,8.00
2017-11-12T16:42:22.568Z,8.10
2017-11-12T16:44:50.738Z,8.00
2017-11-12T16:47:18.883Z,8.00
2017-11-12T16:49:47.856Z,8.10
2017-11-12T16:52:16.038Z,8.10
2017-11-12T16:54:44.183Z,8.10
2017-11-12T16:57:12.347Z,8.10
2017-11-12T16:59:40.505Z,8.10
2017-11-12T17:02:08.690Z,8.10
2017-11-12T17:04:37.259Z,8.10
2017-11-12T17:07:05.434Z,8.10
2017-11-12T17:09:33.582Z,8.10
2017-11-12T17:12:02.518Z,8.10
2017-11-12T17:14:31.187Z,8.10
2017-11-12T17:16:59.363Z,8.10
2017-11-12T17:19:27.499Z,8.10
2017-11-12T17:21:56.434Z,8.10
2017-11-12T17:24:24.575Z,8.10
2017-11-12T17:26:52.757Z,8.10
2017-11-12T17:29:20.904Z,8.10
2017-11-12T17:31:49.860Z,8.10
2017-11-12T17:34:18.005Z,8.10
2017-11-12T17:36:46.184Z,8.10
2017-11-12T17:39:14.350Z,8.10
2017-11-12T17:41:42.501Z,8.00
2017-11-12T17:44:10.671Z,8.00
2017-11-12T17:46:38.807Z,8.00
2017-11-12T17:49:07.043Z,8.00
2017-11-12T17:51:35.197Z,7.90
2017-11-12T17:54:03.403Z,8.00
2017-11-12T17:56:31.583Z,7.90
2017-11-12T17:58:59.745Z,7.90
2017-11-12T18:01:27.913Z,7.90
2017-11-12T18:03:56.093Z,7.90
2017-11-12T18:06:24.244Z,7.90
2017-11-12T18:08:52.402Z,7.90
2017-11-12T18:11:20.539Z,7.90
2017-11-12T18:13:48.714Z,7.90
2017-11-12T18:16:16.955Z,7.90
2017-11-12T18:18:45.266Z,7.80
2017-11-12T18:21:13.986Z,7.80
2017-11-12T18:23:42.187Z,7.80
2017-11-12T18:26:10.342Z,7.80
2017-11-12T18:28:38.952Z,7.70
2017-11-12T18:31:07.143Z,7.70
2017-11-12T18:33:35.294Z,7.80
2017-11-12T18:36:03.442Z,7.80
2017-11-12T18:38:32.071Z,7.80
2017-11-12T18:41:00.220Z,7.80
2017-11-12T18:43:28.371Z,7.80
2017-11-12T18:45:56.516Z,7.80
2017-11-12T18:48:25.462Z,7.70
2017-11-12T18:50:53.603Z,7.70
2017-11-12T18:53:21.802Z,7.80
2017-11-12T18:56:10.748Z,7.80
2017-11-12T18:58:39.254Z,7.80
2017-11-12T19:01:27.177Z,7.80
2017-11-12T19:07:08.657Z,7.90
2017-11-12T19:09:36.825Z,7.90
2017-11-12T19:12:08.507Z,7.90
2017-11-12T19:14:36.673Z,8.00
2017-11-12T19:20:05.047Z,8.00
2017-11-12T19:22:33.184Z,8.00
2017-11-12T19:25:11.234Z,7.90
2017-11-12T19:27:39.404Z,7.90
2017-11-12T19:30:08.049Z,7.80
2017-11-12T19:32:36.192Z,7.80
2017-11-12T19:35:04.363Z,7.70
2017-11-12T19:37:32.515Z,7.70
2017-11-12T19:40:00.843Z,7.60
2017-11-12T19:42:29.082Z,7.60
2017-11-12T19:44:57.246Z,7.50
2017-11-12T19:47:25.411Z,7.50
2017-11-12T19:49:53.546Z,7.40
2017-11-12T19:52:22.473Z,7.40
2017-11-12T19:54:50.642Z,7.30
2017-11-12T19:57:18.801Z,7.40
2017-11-12T19:59:46.943Z,7.40
2017-11-12T20:02:15.099Z,7.30
2017-11-12T20:04:43.240Z,7.40
2017-11-12T20:07:11.391Z,7.40
2017-11-12T20:09:39.535Z,7.40
2017-11-12T20:12:07.714Z,7.40
2017-11-12T20:14:36.631Z,7.40
2017-11-12T20:17:04.792Z,7.40
2017-11-12T20:19:33.007Z,7.50
2017-11-12T20:22:01.178Z,7.50
2017-11-12T20:24:29.432Z,7.50
2017-11-12T20:26:58.525Z,7.40
2017-11-12T20:29:26.676Z,7.40
2017-11-12T20:31:56.335Z,7.30
2017-11-12T20:34:24.503Z,7.30
2017-11-12T20:36:52.667Z,7.30
2017-11-12T20:39:20.842Z,7.30
2017-11-12T20:41:48.995Z,7.20
2017-11-12T20:44:17.159Z,6.80
2017-11-12T20:46:45.305Z,6.80
2017-11-12T20:49:14.265Z,6.70
2017-11-12T20:51:42.429Z,6.70
2017-11-12T20:54:10.594Z,6.50
2017-11-12T20:56:39.913Z,6.40
2017-11-12T20:59:08.075Z,6.70
2017-11-12T21:01:36.483Z,7.00
2017-11-12T21:04:08.004Z,7.10
2017-11-12T21:06:36.154Z,7.20
2017-11-12T21:09:04.369Z,7.30
2017-11-12T21:11:32.545Z,7.30
2017-11-12T21:14:00.713Z,7.30
2017-11-12T21:16:28.867Z,7.40
2017-11-12T21:18:57.039Z,7.00
2017-11-12T21:24:28.079Z,6.40
2017-11-12T21:26:58.564Z,6.40
2017-11-12T21:29:29.220Z,6.70
2017-11-12T21:31:57.765Z,6.90
2017-11-12T21:37:29.459Z,7.20
2017-11-12T21:39:58.382Z,7.50
2017-11-12T21:42:26.529Z,7.50
2017-11-12T21:44:55.468Z,7.70
2017-11-12T21:47:23.633Z,7.70
2017-11-12T21:49:51.790Z,7.80
2017-11-12T21:52:19.948Z,7.80
2017-11-12T21:54:48.097Z,7.90
2017-11-12T21:57:17.032Z,8.00
2017-11-12T21:59:45.184Z,7.90
2017-11-12T22:02:13.415Z,7.90
2017-11-12T22:04:41.575Z,7.70
2017-11-12T22:07:09.748Z,7.80
2017-11-12T22:09:37.998Z,7.80
2017-11-12T22:12:06.181Z,7.80
2017-11-12T22:14:34.433Z,7.70
2017-11-12T22:17:02.600Z,7.70
2017-11-12T22:19:30.756Z,7.70
2017-11-12T22:22:00.305Z,7.80
2017-11-12T22:24:28.483Z,7.80
2017-11-12T22:26:56.667Z,7.70
2017-11-12T22:29:24.803Z,7.60
2017-11-12T22:31:52.940Z,7.40
2017-11-12T22:34:21.122Z,7.50
2017-11-12T22:36:50.050Z,7.50
2017-11-12T22:39:18.220Z,7.50
2017-11-12T22:41:46.368Z,7.60
2017-11-12T22:44:15.312Z,7.60
2017-11-12T22:46:44.150Z,7.50
2017-11-12T22:49:13.821Z,7.60
2017-11-12T22:51:42.189Z,7.60
2017-11-12T22:54:10.360Z,7.50
2017-11-12T22:56:38.509Z,7.40
2017-11-12T22:59:06.676Z,7.30
2017-11-12T23:01:34.828Z,7.30
2017-11-12T23:04:03.015Z,7.20
2017-11-12T23:06:31.165Z,7.30
2017-11-12T23:09:00.107Z,7.30
2017-11-12T23:11:28.265Z,7.30
2017-11-12T23:13:56.438Z,7.30
2017-11-12T23:16:24.578Z,7.40
2017-11-12T23:18:52.754Z,7.50
2017-11-12T23:21:20.893Z,7.50
2017-11-12T23:23:49.070Z,7.30
2017-11-12T23:26:18.131Z,7.40
2017-11-12T23:28:46.295Z,7.50
2017-11-12T23:31:14.436Z,7.40
2017-11-12T23:33:43.055Z,7.50
2017-11-12T23:36:11.204Z,7.40
2017-11-12T23:38:39.441Z,7.40
2017-11-12T23:41:08.205Z,7.30
2017-11-12T23:43:36.436Z,7.30
2017-11-12T23:46:04.601Z,7.30
2017-11-12T23:48:32.763Z,7.30
2017-11-12T23:51:01.684Z,7.30
2017-11-12T23:53:29.845Z,7.20
2017-11-12T23:55:58.032Z,7.20
2017-11-12T23:58:26.188Z,7.10
